Aérodrome :
LOGIN :

S'inscrire | Disclaimer

   EN    FR    IT 

 










Légende :    VFR   VFR Marginal   IFR   IFR Intensif   IFR Très Intensif
Visi : 
Plafond : 
>= 8 km
>= 3000ft
5 à 8 km
1000 à 3000 ft
1500m à 5 km
500 à 1000 ft
800 à 1500m
200 à 500 ft
< 800m
< 200 ft
Symboles :   Orages  Brouillard  Fortes neiges  Fortes précipitations  Vent > 20 kt
SIGMETs :   Divers  Orages  Givrage  Turbulence  Onde Orograph.  Cendres Volcan.







- Altitude de l'aérodrome : 1487 ft
- Code IATA : MUC


EDDM - München Franz Josef Strauss

DERNIER METAR :
  • 220550Z 25018KT 9999 FEW018 SCT055 BKN080 09/07 Q1014 TEMPO 4000 -RADZ BKN012

METARs EXPIRÉS :
  • 220520Z 24016KT 9999 FEW018 SCT050 BKN080 09/07 Q1014 TEMPO 4000 -RADZ BKN012
  • 220450Z 24016KT 9999 -RA FEW018 SCT043 BKN065 09/07 Q1014 TEMPO 4000 -RADZ BKN012
  • 220420Z 24011KT 9999 SCT018 BKN060 09/07 Q1014 TEMPO 4000 -RADZ BKN012
  • 220350Z 24014KT 9999 -RA SCT017 SCT043 BKN060 09/07 Q1014 TEMPO 4000 -RADZ BKN012
  • 220320Z 24015KT 9999 -RA FEW017 SCT043 BKN065 09/07 Q1015 TEMPO 4000 RADZ BKN012

TAF TAF EDDM
Valide du 22 à 06h jusqu'au 23 à 12h UTC


220500Z 2206/2312 25015G25KT 9999 SCT010 BKN020
PROB30
TEMPO 2206/2207 4000 -RADZ BKN010
TEMPO 2210/2216 26020G35KT
BECMG 2220/2222 25012KT
BECMG 2306/2308 25015G25KT
BECMG 2308/2310 26020G35KT
Pas de NOTAMs connus pour ce terrain.



MET'MAP, la Météo Aéronautique d'un coup d'oeil ! - Copyright ORBIFLY Décembre 2007 - Disclaimer

ORBIFLY MET'MAP TEAM :

Programmation & Développement : Alexandra Zaïnal
Conception & Développement : Baudouin d'Aumeries
Co-Programmation & Développement : Marc-Olivier Méhu
Soutien technique & logistique : Manuel Goepfert

Contact : metmap@orbifly.com




SOURCES & CREDITS :

   NOAA